sensor_id;sensor_type;location;lat;lon;timestamp;P1;durP1;ratioP1;P2;durP2;ratioP2
12663;SDS011;6396;58.490;15.528;2023-03-23T00:00:11;13.90;;;3.80;;
12663;SDS011;6396;58.490;15.528;2023-03-23T00:02:39;14.67;;;4.20;;
12663;SDS011;6396;58.490;15.528;2023-03-23T00:05:06;21.83;;;5.10;;
12663;SDS011;6396;58.490;15.528;2023-03-23T00:07:34;17.30;;;4.33;;
12663;SDS011;6396;58.490;15.528;2023-03-23T00:10:01;14.80;;;4.40;;
12663;SDS011;6396;58.490;15.528;2023-03-23T00:12:29;15.13;;;4.97;;
12663;SDS011;6396;58.490;15.528;2023-03-23T00:15:02;17.00;;;4.17;;
12663;SDS011;6396;58.490;15.528;2023-03-23T00:17:31;14.43;;;4.50;;
12663;SDS011;6396;58.490;15.528;2023-03-23T00:19:59;15.20;;;4.27;;
12663;SDS011;6396;58.490;15.528;2023-03-23T00:22:26;13.13;;;4.10;;
12663;SDS011;6396;58.490;15.528;2023-03-23T00:24:54;11.43;;;4.53;;
12663;SDS011;6396;58.490;15.528;2023-03-23T00:27:21;11.17;;;4.00;;
12663;SDS011;6396;58.490;15.528;2023-03-23T00:29:48;15.67;;;4.10;;
12663;SDS011;6396;58.490;15.528;2023-03-23T00:32:19;12.17;;;4.17;;
12663;SDS011;6396;58.490;15.528;2023-03-23T00:34:53;18.13;;;5.17;;
12663;SDS011;6396;58.490;15.528;2023-03-23T00:37:21;12.73;;;4.33;;
12663;SDS011;6396;58.490;15.528;2023-03-23T00:39:49;17.10;;;4.90;;
12663;SDS011;6396;58.490;15.528;2023-03-23T00:42:17;16.00;;;4.03;;
12663;SDS011;6396;58.490;15.528;2023-03-23T00:44:44;16.13;;;4.50;;
12663;SDS011;6396;58.490;15.528;2023-03-23T00:47:11;12.00;;;4.13;;
12663;SDS011;6396;58.490;15.528;2023-03-23T00:49:42;16.27;;;3.80;;
12663;SDS011;6396;58.490;15.528;2023-03-23T00:52:09;13.23;;;4.00;;
12663;SDS011;6396;58.490;15.528;2023-03-23T00:54:37;12.00;;;3.90;;
12663;SDS011;6396;58.490;15.528;2023-03-23T00:57:04;14.47;;;4.37;;
12663;SDS011;6396;58.490;15.528;2023-03-23T00:59:31;12.73;;;4.60;;
12663;SDS011;6396;58.490;15.528;2023-03-23T01:01:58;14.40;;;3.90;;
12663;SDS011;6396;58.490;15.528;2023-03-23T01:04:25;13.63;;;4.23;;
12663;SDS011;6396;58.490;15.528;2023-03-23T01:06:58;15.73;;;4.57;;
12663;SDS011;6396;58.490;15.528;2023-03-23T01:09:26;11.87;;;4.00;;
12663;SDS011;6396;58.490;15.528;2023-03-23T01:11:53;17.30;;;4.27;;
12663;SDS011;6396;58.490;15.528;2023-03-23T01:14:21;19.80;;;5.33;;
12663;SDS011;6396;58.490;15.528;2023-03-23T01:16:48;13.03;;;4.43;;
12663;SDS011;6396;58.490;15.528;2023-03-23T01:19:15;16.83;;;4.80;;
12663;SDS011;6396;58.490;15.528;2023-03-23T01:21:42;17.20;;;4.53;;
12663;SDS011;6396;58.490;15.528;2023-03-23T01:24:10;12.60;;;4.63;;
12663;SDS011;6396;58.490;15.528;2023-03-23T01:26:37;13.53;;;4.50;;
12663;SDS011;6396;58.490;15.528;2023-03-23T01:29:04;13.13;;;4.33;;
12663;SDS011;6396;58.490;15.528;2023-03-23T01:31:31;16.90;;;4.40;;
12663;SDS011;6396;58.490;15.528;2023-03-23T01:33:58;10.70;;;4.07;;
12663;SDS011;6396;58.490;15.528;2023-03-23T01:36:25;12.70;;;4.40;;
12663;SDS011;6396;58.490;15.528;2023-03-23T01:38:57;13.67;;;4.20;;
12663;SDS011;6396;58.490;15.528;2023-03-23T01:41:27;18.03;;;4.70;;
12663;SDS011;6396;58.490;15.528;2023-03-23T01:43:57;16.03;;;4.67;;
12663;SDS011;6396;58.490;15.528;2023-03-23T01:46:29;17.03;;;4.50;;
12663;SDS011;6396;58.490;15.528;2023-03-23T01:48:59;13.50;;;4.57;;
12663;SDS011;6396;58.490;15.528;2023-03-23T01:51:31;14.30;;;4.60;;
12663;SDS011;6396;58.490;15.528;2023-03-23T01:54:01;19.57;;;5.23;;
12663;SDS011;6396;58.490;15.528;2023-03-23T01:56:33;14.80;;;4.73;;
12663;SDS011;6396;58.490;15.528;2023-03-23T01:59:06;15.13;;;4.13;;
12663;SDS011;6396;58.490;15.528;2023-03-23T02:01:33;14.27;;;5.47;;
12663;SDS011;6396;58.490;15.528;2023-03-23T02:04:03;15.43;;;4.77;;
12663;SDS011;6396;58.490;15.528;2023-03-23T02:06:32;16.57;;;4.77;;
12663;SDS011;6396;58.490;15.528;2023-03-23T02:08:59;16.40;;;5.23;;
12663;SDS011;6396;58.490;15.528;2023-03-23T02:11:27;17.13;;;4.93;;
12663;SDS011;6396;58.490;15.528;2023-03-23T02:13:56;14.03;;;4.37;;
12663;SDS011;6396;58.490;15.528;2023-03-23T02:16:29;20.37;;;5.43;;
12663;SDS011;6396;58.490;15.528;2023-03-23T02:19:05;20.57;;;5.50;;
12663;SDS011;6396;58.490;15.528;2023-03-23T02:21:59;15.70;;;4.60;;
12663;SDS011;6396;58.490;15.528;2023-03-23T02:27:43;16.27;;;4.40;;
12663;SDS011;6396;58.490;15.528;2023-03-23T02:30:52;12.33;;;4.37;;
12663;SDS011;6396;58.490;15.528;2023-03-23T02:33:37;15.00;;;3.73;;
12663;SDS011;6396;58.490;15.528;2023-03-23T02:36:11;13.80;;;4.00;;
12663;SDS011;6396;58.490;15.528;2023-03-23T02:38:48;18.87;;;3.90;;
12663;SDS011;6396;58.490;15.528;2023-03-23T02:41:22;13.47;;;4.17;;
12663;SDS011;6396;58.490;15.528;2023-03-23T02:43:53;16.03;;;4.67;;
12663;SDS011;6396;58.490;15.528;2023-03-23T02:46:22;14.23;;;4.60;;
12663;SDS011;6396;58.490;15.528;2023-03-23T02:48:52;19.63;;;5.67;;
12663;SDS011;6396;58.490;15.528;2023-03-23T02:51:21;15.30;;;4.10;;
12663;SDS011;6396;58.490;15.528;2023-03-23T02:53:50;12.90;;;4.40;;
12663;SDS011;6396;58.490;15.528;2023-03-23T02:56:20;13.10;;;4.10;;
12663;SDS011;6396;58.490;15.528;2023-03-23T02:58:49;14.37;;;4.50;;
12663;SDS011;6396;58.490;15.528;2023-03-23T03:04:36;19.67;;;4.60;;
12663;SDS011;6396;58.490;15.528;2023-03-23T03:07:28;11.57;;;4.40;;
12663;SDS011;6396;58.490;15.528;2023-03-23T03:10:02;15.20;;;4.43;;
12663;SDS011;6396;58.490;15.528;2023-03-23T03:12:36;13.80;;;4.27;;
12663;SDS011;6396;58.490;15.528;2023-03-23T03:15:12;13.47;;;5.17;;
12663;SDS011;6396;58.490;15.528;2023-03-23T03:17:52;13.77;;;4.03;;
12663;SDS011;6396;58.490;15.528;2023-03-23T03:20:26;18.27;;;5.23;;
12663;SDS011;6396;58.490;15.528;2023-03-23T03:22:54;17.83;;;4.60;;
12663;SDS011;6396;58.490;15.528;2023-03-23T03:25:23;16.17;;;4.27;;
12663;SDS011;6396;58.490;15.528;2023-03-23T03:27:52;15.13;;;4.97;;
12663;SDS011;6396;58.490;15.528;2023-03-23T03:30:20;14.70;;;4.93;;
12663;SDS011;6396;58.490;15.528;2023-03-23T03:32:52;21.70;;;4.63;;
12663;SDS011;6396;58.490;15.528;2023-03-23T03:35:20;17.67;;;5.00;;
12663;SDS011;6396;58.490;15.528;2023-03-23T03:37:49;17.63;;;4.50;;
12663;SDS011;6396;58.490;15.528;2023-03-23T03:40:18;18.27;;;5.13;;
12663;SDS011;6396;58.490;15.528;2023-03-23T03:42:47;15.67;;;4.77;;
12663;SDS011;6396;58.490;15.528;2023-03-23T03:45:15;15.87;;;4.87;;
12663;SDS011;6396;58.490;15.528;2023-03-23T03:47:44;15.83;;;5.10;;
12663;SDS011;6396;58.490;15.528;2023-03-23T03:50:11;14.13;;;4.50;;
12663;SDS011;6396;58.490;15.528;2023-03-23T03:52:37;15.87;;;4.83;;
12663;SDS011;6396;58.490;15.528;2023-03-23T03:55:07;13.60;;;5.07;;
12663;SDS011;6396;58.490;15.528;2023-03-23T03:57:35;15.80;;;4.57;;
12663;SDS011;6396;58.490;15.528;2023-03-23T04:00:03;20.50;;;5.03;;
12663;SDS011;6396;58.490;15.528;2023-03-23T04:02:39;14.50;;;4.80;;
12663;SDS011;6396;58.490;15.528;2023-03-23T04:05:07;16.23;;;4.73;;
12663;SDS011;6396;58.490;15.528;2023-03-23T04:07:35;20.10;;;4.53;;
12663;SDS011;6396;58.490;15.528;2023-03-23T04:10:04;17.53;;;4.60;;
12663;SDS011;6396;58.490;15.528;2023-03-23T04:12:36;16.67;;;4.93;;
12663;SDS011;6396;58.490;15.528;2023-03-23T04:15:03;12.23;;;4.30;;
12663;SDS011;6396;58.490;15.528;2023-03-23T04:17:32;17.43;;;4.77;;
12663;SDS011;6396;58.490;15.528;2023-03-23T04:19:59;17.73;;;4.83;;
12663;SDS011;6396;58.490;15.528;2023-03-23T04:22:31;15.20;;;5.57;;
12663;SDS011;6396;58.490;15.528;2023-03-23T04:24:58;17.90;;;4.80;;
12663;SDS011;6396;58.490;15.528;2023-03-23T04:27:30;11.37;;;4.10;;
12663;SDS011;6396;58.490;15.528;2023-03-23T04:29:58;17.73;;;5.00;;
12663;SDS011;6396;58.490;15.528;2023-03-23T04:32:25;16.87;;;4.20;;
12663;SDS011;6396;58.490;15.528;2023-03-23T04:34:53;15.93;;;4.87;;
12663;SDS011;6396;58.490;15.528;2023-03-23T04:37:21;17.30;;;4.47;;
12663;SDS011;6396;58.490;15.528;2023-03-23T04:39:51;15.87;;;4.40;;
12663;SDS011;6396;58.490;15.528;2023-03-23T04:42:26;16.13;;;4.90;;
12663;SDS011;6396;58.490;15.528;2023-03-23T04:44:55;16.27;;;4.60;;
12663;SDS011;6396;58.490;15.528;2023-03-23T04:47:23;19.87;;;4.50;;
12663;SDS011;6396;58.490;15.528;2023-03-23T04:49:50;20.10;;;5.43;;
12663;SDS011;6396;58.490;15.528;2023-03-23T04:52:17;16.67;;;4.60;;
12663;SDS011;6396;58.490;15.528;2023-03-23T04:54:45;13.90;;;4.97;;
12663;SDS011;6396;58.490;15.528;2023-03-23T04:57:12;17.90;;;4.90;;
12663;SDS011;6396;58.490;15.528;2023-03-23T04:59:40;14.00;;;5.33;;
12663;SDS011;6396;58.490;15.528;2023-03-23T05:02:09;14.53;;;4.70;;
12663;SDS011;6396;58.490;15.528;2023-03-23T05:04:38;13.13;;;4.67;;
12663;SDS011;6396;58.490;15.528;2023-03-23T05:07:07;19.00;;;4.43;;
12663;SDS011;6396;58.490;15.528;2023-03-23T05:09:40;15.70;;;4.70;;
12663;SDS011;6396;58.490;15.528;2023-03-23T05:12:10;14.20;;;5.07;;
12663;SDS011;6396;58.490;15.528;2023-03-23T05:14:42;16.13;;;4.77;;
12663;SDS011;6396;58.490;15.528;2023-03-23T05:17:10;18.30;;;4.90;;
12663;SDS011;6396;58.490;15.528;2023-03-23T05:19:37;15.70;;;4.90;;
12663;SDS011;6396;58.490;15.528;2023-03-23T05:22:06;13.67;;;4.47;;
12663;SDS011;6396;58.490;15.528;2023-03-23T05:24:33;18.00;;;4.87;;
12663;SDS011;6396;58.490;15.528;2023-03-23T05:26:59;18.83;;;5.37;;
12663;SDS011;6396;58.490;15.528;2023-03-23T05:29:28;15.67;;;4.37;;
12663;SDS011;6396;58.490;15.528;2023-03-23T05:31:56;15.23;;;5.10;;
12663;SDS011;6396;58.490;15.528;2023-03-23T05:34:28;19.27;;;5.00;;
12663;SDS011;6396;58.490;15.528;2023-03-23T05:36:57;17.30;;;5.17;;
12663;SDS011;6396;58.490;15.528;2023-03-23T05:39:25;10.70;;;4.13;;
12663;SDS011;6396;58.490;15.528;2023-03-23T05:41:53;11.87;;;4.53;;
12663;SDS011;6396;58.490;15.528;2023-03-23T05:44:20;14.77;;;4.80;;
12663;SDS011;6396;58.490;15.528;2023-03-23T05:46:48;15.60;;;4.77;;
12663;SDS011;6396;58.490;15.528;2023-03-23T05:49:15;17.20;;;5.50;;
12663;SDS011;6396;58.490;15.528;2023-03-23T05:51:44;15.50;;;5.23;;
12663;SDS011;6396;58.490;15.528;2023-03-23T05:54:12;18.03;;;5.60;;
12663;SDS011;6396;58.490;15.528;2023-03-23T05:56:39;12.20;;;4.53;;
12663;SDS011;6396;58.490;15.528;2023-03-23T05:59:07;17.10;;;5.07;;
12663;SDS011;6396;58.490;15.528;2023-03-23T06:01:37;11.97;;;5.03;;
12663;SDS011;6396;58.490;15.528;2023-03-23T06:04:12;13.63;;;5.13;;
12663;SDS011;6396;58.490;15.528;2023-03-23T06:07:01;12.90;;;4.90;;
12663;SDS011;6396;58.490;15.528;2023-03-23T06:09:45;19.00;;;5.90;;
12663;SDS011;6396;58.490;15.528;2023-03-23T06:12:16;17.97;;;5.40;;
12663;SDS011;6396;58.490;15.528;2023-03-23T06:17:47;12.40;;;4.97;;
12663;SDS011;6396;58.490;15.528;2023-03-23T06:20:27;17.00;;;5.43;;
12663;SDS011;6396;58.490;15.528;2023-03-23T06:30:06;19.13;;;5.63;;
12663;SDS011;6396;58.490;15.528;2023-03-23T06:32:45;16.57;;;6.40;;
12663;SDS011;6396;58.490;15.528;2023-03-23T06:35:13;16.43;;;5.43;;
12663;SDS011;6396;58.490;15.528;2023-03-23T06:37:48;18.70;;;5.73;;
12663;SDS011;6396;58.490;15.528;2023-03-23T06:41:17;14.47;;;5.30;;
12663;SDS011;6396;58.490;15.528;2023-03-23T06:43:53;14.37;;;4.67;;
12663;SDS011;6396;58.490;15.528;2023-03-23T06:46:21;16.00;;;5.17;;
12663;SDS011;6396;58.490;15.528;2023-03-23T06:48:48;13.77;;;5.03;;
12663;SDS011;6396;58.490;15.528;2023-03-23T06:51:15;14.73;;;4.93;;
12663;SDS011;6396;58.490;15.528;2023-03-23T06:53:43;13.40;;;4.50;;
12663;SDS011;6396;58.490;15.528;2023-03-23T06:56:10;15.70;;;5.10;;
12663;SDS011;6396;58.490;15.528;2023-03-23T06:58:38;11.43;;;4.40;;
12663;SDS011;6396;58.490;15.528;2023-03-23T07:01:07;12.03;;;4.90;;
12663;SDS011;6396;58.490;15.528;2023-03-23T07:03:35;14.67;;;5.30;;
12663;SDS011;6396;58.490;15.528;2023-03-23T07:06:03;10.83;;;4.90;;
12663;SDS011;6396;58.490;15.528;2023-03-23T07:08:30;13.30;;;4.70;;
12663;SDS011;6396;58.490;15.528;2023-03-23T07:10:57;11.77;;;4.30;;
12663;SDS011;6396;58.490;15.528;2023-03-23T07:13:24;13.63;;;4.47;;
12663;SDS011;6396;58.490;15.528;2023-03-23T07:15:51;11.63;;;4.50;;
12663;SDS011;6396;58.490;15.528;2023-03-23T07:18:18;14.30;;;4.67;;
12663;SDS011;6396;58.490;15.528;2023-03-23T07:20:48;17.13;;;4.73;;
12663;SDS011;6396;58.490;15.528;2023-03-23T07:23:16;13.27;;;4.67;;
12663;SDS011;6396;58.490;15.528;2023-03-23T07:25:43;12.17;;;4.00;;
12663;SDS011;6396;58.490;15.528;2023-03-23T07:28:11;13.37;;;4.17;;
12663;SDS011;6396;58.490;15.528;2023-03-23T07:30:38;9.50;;;4.03;;
12663;SDS011;6396;58.490;15.528;2023-03-23T07:33:05;12.60;;;3.90;;
12663;SDS011;6396;58.490;15.528;2023-03-23T07:35:34;12.00;;;4.00;;
12663;SDS011;6396;58.490;15.528;2023-03-23T07:38:04;16.43;;;5.00;;
12663;SDS011;6396;58.490;15.528;2023-03-23T07:40:32;14.80;;;4.43;;
12663;SDS011;6396;58.490;15.528;2023-03-23T07:43:00;13.70;;;4.53;;
12663;SDS011;6396;58.490;15.528;2023-03-23T07:45:29;13.73;;;4.37;;
12663;SDS011;6396;58.490;15.528;2023-03-23T07:47:56;11.63;;;4.07;;
12663;SDS011;6396;58.490;15.528;2023-03-23T07:50:23;11.53;;;4.33;;
12663;SDS011;6396;58.490;15.528;2023-03-23T07:52:51;12.63;;;4.20;;
12663;SDS011;6396;58.490;15.528;2023-03-23T07:55:23;14.93;;;3.80;;
12663;SDS011;6396;58.490;15.528;2023-03-23T07:57:52;11.47;;;4.00;;
12663;SDS011;6396;58.490;15.528;2023-03-23T08:00:22;19.80;;;4.10;;
12663;SDS011;6396;58.490;15.528;2023-03-23T08:02:51;10.90;;;4.57;;
12663;SDS011;6396;58.490;15.528;2023-03-23T08:05:21;12.30;;;4.00;;
12663;SDS011;6396;58.490;15.528;2023-03-23T08:09:46;11.83;;;3.57;;
12663;SDS011;6396;58.490;15.528;2023-03-23T08:12:15;10.37;;;4.13;;
12663;SDS011;6396;58.490;15.528;2023-03-23T08:15:40;10.30;;;3.43;;
12663;SDS011;6396;58.490;15.528;2023-03-23T08:19:21;11.03;;;3.53;;
12663;SDS011;6396;58.490;15.528;2023-03-23T08:28:39;7.53;;;3.53;;
12663;SDS011;6396;58.490;15.528;2023-03-23T08:31:07;7.83;;;3.13;;
12663;SDS011;6396;58.490;15.528;2023-03-23T08:33:36;10.90;;;4.00;;
12663;SDS011;6396;58.490;15.528;2023-03-23T08:36:03;6.53;;;2.87;;
12663;SDS011;6396;58.490;15.528;2023-03-23T08:38:30;10.90;;;2.93;;
12663;SDS011;6396;58.490;15.528;2023-03-23T08:40:58;7.87;;;2.80;;
12663;SDS011;6396;58.490;15.528;2023-03-23T08:43:25;9.33;;;3.40;;
12663;SDS011;6396;58.490;15.528;2023-03-23T08:45:54;8.77;;;2.83;;
12663;SDS011;6396;58.490;15.528;2023-03-23T08:48:21;6.50;;;2.50;;
12663;SDS011;6396;58.490;15.528;2023-03-23T08:50:48;12.67;;;3.50;;
12663;SDS011;6396;58.490;15.528;2023-03-23T08:53:17;7.13;;;3.17;;
12663;SDS011;6396;58.490;15.528;2023-03-23T08:55:45;8.27;;;3.37;;
12663;SDS011;6396;58.490;15.528;2023-03-23T08:58:12;7.77;;;2.80;;
12663;SDS011;6396;58.490;15.528;2023-03-23T09:00:40;8.20;;;3.00;;
12663;SDS011;6396;58.490;15.528;2023-03-23T09:03:08;8.00;;;2.47;;
12663;SDS011;6396;58.490;15.528;2023-03-23T09:05:35;8.10;;;2.90;;
12663;SDS011;6396;58.490;15.528;2023-03-23T09:08:04;9.30;;;3.50;;
12663;SDS011;6396;58.490;15.528;2023-03-23T09:10:31;7.83;;;2.87;;
12663;SDS011;6396;58.490;15.528;2023-03-23T09:12:58;12.93;;;3.70;;
12663;SDS011;6396;58.490;15.528;2023-03-23T09:15:25;10.13;;;3.43;;
12663;SDS011;6396;58.490;15.528;2023-03-23T09:17:52;7.17;;;2.97;;
12663;SDS011;6396;58.490;15.528;2023-03-23T09:20:24;9.13;;;3.00;;
12663;SDS011;6396;58.490;15.528;2023-03-23T09:22:53;6.13;;;3.00;;
12663;SDS011;6396;58.490;15.528;2023-03-23T09:25:22;11.90;;;3.60;;
12663;SDS011;6396;58.490;15.528;2023-03-23T09:27:50;8.57;;;3.07;;
12663;SDS011;6396;58.490;15.528;2023-03-23T09:48:50;8.80;;;3.43;;
12663;SDS011;6396;58.490;15.528;2023-03-23T09:58:16;7.73;;;2.37;;
12663;SDS011;6396;58.490;15.528;2023-03-23T10:08:39;6.57;;;2.60;;
12663;SDS011;6396;58.490;15.528;2023-03-23T10:11:11;11.03;;;2.60;;
12663;SDS011;6396;58.490;15.528;2023-03-23T10:13:47;6.83;;;2.57;;
12663;SDS011;6396;58.490;15.528;2023-03-23T10:16:31;13.70;;;2.93;;
12663;SDS011;6396;58.490;15.528;2023-03-23T10:19:03;6.57;;;2.77;;
12663;SDS011;6396;58.490;15.528;2023-03-23T10:21:42;5.43;;;2.37;;
12663;SDS011;6396;58.490;15.528;2023-03-23T10:24:19;4.63;;;2.03;;
12663;SDS011;6396;58.490;15.528;2023-03-23T10:26:52;7.10;;;2.83;;
12663;SDS011;6396;58.490;15.528;2023-03-23T10:29:24;7.30;;;2.43;;
12663;SDS011;6396;58.490;15.528;2023-03-23T10:31:56;5.30;;;2.57;;
12663;SDS011;6396;58.490;15.528;2023-03-23T10:34:30;8.20;;;2.30;;
12663;SDS011;6396;58.490;15.528;2023-03-23T10:37:01;7.63;;;2.43;;
12663;SDS011;6396;58.490;15.528;2023-03-23T10:39:38;5.83;;;2.90;;
12663;SDS011;6396;58.490;15.528;2023-03-23T10:42:10;5.03;;;2.17;;
12663;SDS011;6396;58.490;15.528;2023-03-23T11:08:26;6.27;;;2.87;;
12663;SDS011;6396;58.490;15.528;2023-03-23T11:10:56;7.93;;;3.33;;
12663;SDS011;6396;58.490;15.528;2023-03-23T11:13:28;8.03;;;3.10;;
12663;SDS011;6396;58.490;15.528;2023-03-23T11:16:50;7.83;;;2.70;;
12663;SDS011;6396;58.490;15.528;2023-03-23T11:19:51;8.33;;;3.10;;
12663;SDS011;6396;58.490;15.528;2023-03-23T11:24:02;8.43;;;3.30;;
12663;SDS011;6396;58.490;15.528;2023-03-23T11:33:02;12.47;;;3.00;;
12663;SDS011;6396;58.490;15.528;2023-03-23T11:46:49;13.40;;;3.40;;
12663;SDS011;6396;58.490;15.528;2023-03-23T11:49:30;9.77;;;3.00;;
12663;SDS011;6396;58.490;15.528;2023-03-23T11:52:08;11.70;;;3.63;;
12663;SDS011;6396;58.490;15.528;2023-03-23T11:54:40;13.07;;;3.80;;
12663;SDS011;6396;58.490;15.528;2023-03-23T11:57:16;10.97;;;3.37;;
12663;SDS011;6396;58.490;15.528;2023-03-23T11:59:44;6.17;;;2.80;;
12663;SDS011;6396;58.490;15.528;2023-03-23T12:02:32;12.43;;;3.47;;
12663;SDS011;6396;58.490;15.528;2023-03-23T12:05:19;7.67;;;2.60;;
12663;SDS011;6396;58.490;15.528;2023-03-23T12:07:58;8.03;;;3.23;;
12663;SDS011;6396;58.490;15.528;2023-03-23T12:10:46;9.00;;;3.33;;
12663;SDS011;6396;58.490;15.528;2023-03-23T12:13:27;8.10;;;3.20;;
12663;SDS011;6396;58.490;15.528;2023-03-23T12:16:07;8.77;;;2.80;;
12663;SDS011;6396;58.490;15.528;2023-03-23T12:18:49;12.10;;;3.50;;
12663;SDS011;6396;58.490;15.528;2023-03-23T12:21:26;7.80;;;3.03;;
12663;SDS011;6396;58.490;15.528;2023-03-23T12:24:02;6.50;;;3.00;;
12663;SDS011;6396;58.490;15.528;2023-03-23T12:26:39;4.93;;;2.63;;
12663;SDS011;6396;58.490;15.528;2023-03-23T12:45:07;7.50;;;3.60;;
12663;SDS011;6396;58.490;15.528;2023-03-23T12:52:12;6.63;;;2.70;;
12663;SDS011;6396;58.490;15.528;2023-03-23T12:54:44;6.07;;;2.80;;
12663;SDS011;6396;58.490;15.528;2023-03-23T12:57:19;8.47;;;2.77;;
12663;SDS011;6396;58.490;15.528;2023-03-23T12:59:53;5.10;;;2.50;;
12663;SDS011;6396;58.490;15.528;2023-03-23T13:02:27;6.47;;;2.10;;
12663;SDS011;6396;58.490;15.528;2023-03-23T13:04:58;10.50;;;2.83;;
12663;SDS011;6396;58.490;15.528;2023-03-23T13:07:31;4.57;;;2.07;;
12663;SDS011;6396;58.490;15.528;2023-03-23T13:10:05;5.97;;;2.13;;
12663;SDS011;6396;58.490;15.528;2023-03-23T13:12:40;6.20;;;2.47;;
12663;SDS011;6396;58.490;15.528;2023-03-23T13:15:14;5.50;;;2.10;;
12663;SDS011;6396;58.490;15.528;2023-03-23T13:17:52;5.33;;;2.77;;
12663;SDS011;6396;58.490;15.528;2023-03-23T13:23:21;6.90;;;2.47;;
12663;SDS011;6396;58.490;15.528;2023-03-23T13:25:51;7.43;;;2.97;;
12663;SDS011;6396;58.490;15.528;2023-03-23T13:28:22;4.97;;;2.63;;
12663;SDS011;6396;58.490;15.528;2023-03-23T13:30:54;5.27;;;2.53;;
12663;SDS011;6396;58.490;15.528;2023-03-23T13:33:28;5.57;;;2.17;;
12663;SDS011;6396;58.490;15.528;2023-03-23T13:35:56;2.93;;;2.20;;
12663;SDS011;6396;58.490;15.528;2023-03-23T13:38:32;6.60;;;2.43;;
12663;SDS011;6396;58.490;15.528;2023-03-23T14:04:22;3.97;;;1.90;;
12663;SDS011;6396;58.490;15.528;2023-03-23T14:07:08;6.97;;;2.40;;
12663;SDS011;6396;58.490;15.528;2023-03-23T14:09:37;2.30;;;1.40;;
12663;SDS011;6396;58.490;15.528;2023-03-23T14:12:13;6.60;;;1.73;;
12663;SDS011;6396;58.490;15.528;2023-03-23T14:14:43;5.83;;;2.07;;
12663;SDS011;6396;58.490;15.528;2023-03-23T14:17:13;4.93;;;1.70;;
12663;SDS011;6396;58.490;15.528;2023-03-23T14:19:44;3.83;;;2.00;;
12663;SDS011;6396;58.490;15.528;2023-03-23T14:22:17;3.80;;;1.43;;
12663;SDS011;6396;58.490;15.528;2023-03-23T14:24:45;3.70;;;1.60;;
12663;SDS011;6396;58.490;15.528;2023-03-23T14:27:13;3.33;;;1.90;;
12663;SDS011;6396;58.490;15.528;2023-03-23T14:29:43;3.77;;;1.50;;
12663;SDS011;6396;58.490;15.528;2023-03-23T14:32:12;4.53;;;1.50;;
12663;SDS011;6396;58.490;15.528;2023-03-23T14:34:44;4.00;;;1.40;;
12663;SDS011;6396;58.490;15.528;2023-03-23T14:37:14;2.13;;;1.20;;
12663;SDS011;6396;58.490;15.528;2023-03-23T14:39:44;1.70;;;1.33;;
12663;SDS011;6396;58.490;15.528;2023-03-23T14:42:13;2.40;;;1.10;;
12663;SDS011;6396;58.490;15.528;2023-03-23T14:44:43;2.30;;;1.20;;
12663;SDS011;6396;58.490;15.528;2023-03-23T14:47:13;2.33;;;1.07;;
12663;SDS011;6396;58.490;15.528;2023-03-23T14:49:46;1.43;;;1.10;;
12663;SDS011;6396;58.490;15.528;2023-03-23T14:52:14;1.57;;;1.17;;
12663;SDS011;6396;58.490;15.528;2023-03-23T14:54:42;2.60;;;1.00;;
12663;SDS011;6396;58.490;15.528;2023-03-23T14:57:11;3.03;;;1.57;;
12663;SDS011;6396;58.490;15.528;2023-03-23T14:59:41;1.33;;;1.10;;
12663;SDS011;6396;58.490;15.528;2023-03-23T15:02:12;1.40;;;1.20;;
12663;SDS011;6396;58.490;15.528;2023-03-23T15:04:42;1.73;;;1.00;;
12663;SDS011;6396;58.490;15.528;2023-03-23T15:07:13;1.37;;;1.00;;
12663;SDS011;6396;58.490;15.528;2023-03-23T15:09:42;1.70;;;1.30;;
12663;SDS011;6396;58.490;15.528;2023-03-23T15:12:13;1.23;;;1.00;;
12663;SDS011;6396;58.490;15.528;2023-03-23T15:14:48;1.90;;;0.83;;
12663;SDS011;6396;58.490;15.528;2023-03-23T15:17:18;1.20;;;0.90;;
12663;SDS011;6396;58.490;15.528;2023-03-23T15:19:46;2.20;;;1.10;;
12663;SDS011;6396;58.490;15.528;2023-03-23T15:22:17;1.87;;;1.20;;
12663;SDS011;6396;58.490;15.528;2023-03-23T15:24:46;2.33;;;1.13;;
12663;SDS011;6396;58.490;15.528;2023-03-23T15:27:15;2.90;;;1.40;;
12663;SDS011;6396;58.490;15.528;2023-03-23T15:29:47;4.07;;;1.03;;
12663;SDS011;6396;58.490;15.528;2023-03-23T15:32:20;2.83;;;1.00;;
12663;SDS011;6396;58.490;15.528;2023-03-23T15:34:48;1.13;;;1.03;;
12663;SDS011;6396;58.490;15.528;2023-03-23T15:37:19;3.00;;;0.97;;
12663;SDS011;6396;58.490;15.528;2023-03-23T15:39:49;2.67;;;1.20;;
12663;SDS011;6396;58.490;15.528;2023-03-23T15:42:21;1.87;;;1.10;;
12663;SDS011;6396;58.490;15.528;2023-03-23T15:44:57;1.87;;;1.30;;
12663;SDS011;6396;58.490;15.528;2023-03-23T15:47:36;1.33;;;1.20;;
12663;SDS011;6396;58.490;15.528;2023-03-23T15:50:08;2.00;;;1.37;;
12663;SDS011;6396;58.490;15.528;2023-03-23T15:52:43;2.20;;;1.27;;
12663;SDS011;6396;58.490;15.528;2023-03-23T15:55:18;3.30;;;1.87;;
12663;SDS011;6396;58.490;15.528;2023-03-23T15:57:53;2.00;;;1.60;;
12663;SDS011;6396;58.490;15.528;2023-03-23T16:00:23;2.87;;;2.20;;
12663;SDS011;6396;58.490;15.528;2023-03-23T16:11:30;4.60;;;3.07;;
12663;SDS011;6396;58.490;15.528;2023-03-23T16:14:06;3.93;;;3.10;;
12663;SDS011;6396;58.490;15.528;2023-03-23T16:16:49;5.73;;;3.00;;
12663;SDS011;6396;58.490;15.528;2023-03-23T16:19:26;5.67;;;3.43;;
12663;SDS011;6396;58.490;15.528;2023-03-23T16:21:53;4.53;;;2.70;;
12663;SDS011;6396;58.490;15.528;2023-03-23T16:24:20;3.33;;;2.40;;
12663;SDS011;6396;58.490;15.528;2023-03-23T16:26:48;3.40;;;2.00;;
12663;SDS011;6396;58.490;15.528;2023-03-23T16:29:15;3.97;;;2.03;;
12663;SDS011;6396;58.490;15.528;2023-03-23T16:31:43;3.50;;;2.17;;
12663;SDS011;6396;58.490;15.528;2023-03-23T16:34:10;4.97;;;1.90;;
12663;SDS011;6396;58.490;15.528;2023-03-23T16:36:36;2.40;;;1.60;;
12663;SDS011;6396;58.490;15.528;2023-03-23T16:39:08;3.93;;;1.60;;
12663;SDS011;6396;58.490;15.528;2023-03-23T16:41:37;1.77;;;1.27;;
12663;SDS011;6396;58.490;15.528;2023-03-23T16:44:06;1.57;;;1.40;;
12663;SDS011;6396;58.490;15.528;2023-03-23T16:46:33;4.40;;;1.80;;
12663;SDS011;6396;58.490;15.528;2023-03-23T16:49:01;2.73;;;1.63;;
12663;SDS011;6396;58.490;15.528;2023-03-23T16:51:28;2.63;;;1.90;;
12663;SDS011;6396;58.490;15.528;2023-03-23T16:56:52;2.43;;;1.50;;
12663;SDS011;6396;58.490;15.528;2023-03-23T16:59:27;2.47;;;1.20;;
12663;SDS011;6396;58.490;15.528;2023-03-23T17:01:57;2.33;;;1.30;;
12663;SDS011;6396;58.490;15.528;2023-03-23T17:04:27;1.23;;;1.00;;
12663;SDS011;6396;58.490;15.528;2023-03-23T17:06:55;2.40;;;1.40;;
12663;SDS011;6396;58.490;15.528;2023-03-23T17:09:27;1.37;;;1.10;;
12663;SDS011;6396;58.490;15.528;2023-03-23T17:11:58;3.60;;;1.50;;
12663;SDS011;6396;58.490;15.528;2023-03-23T17:14:29;1.47;;;1.10;;
12663;SDS011;6396;58.490;15.528;2023-03-23T17:16:58;2.53;;;1.10;;
12663;SDS011;6396;58.490;15.528;2023-03-23T17:19:38;1.23;;;1.00;;
12663;SDS011;6396;58.490;15.528;2023-03-23T17:22:40;1.23;;;1.13;;
12663;SDS011;6396;58.490;15.528;2023-03-23T17:25:10;3.13;;;1.70;;
12663;SDS011;6396;58.490;15.528;2023-03-23T17:27:47;1.77;;;1.30;;
12663;SDS011;6396;58.490;15.528;2023-03-23T17:30:32;1.30;;;1.17;;
12663;SDS011;6396;58.490;15.528;2023-03-23T17:33:01;1.97;;;1.10;;
12663;SDS011;6396;58.490;15.528;2023-03-23T17:35:28;1.10;;;1.00;;
12663;SDS011;6396;58.490;15.528;2023-03-23T17:37:55;1.83;;;1.43;;
12663;SDS011;6396;58.490;15.528;2023-03-23T17:40:26;1.40;;;1.10;;
12663;SDS011;6396;58.490;15.528;2023-03-23T17:42:54;1.27;;;1.13;;
12663;SDS011;6396;58.490;15.528;2023-03-23T17:45:26;1.30;;;1.00;;